Time;durP1;ratioP1;P1;durP2;ratioP2;P2;SDS_P1;SDS_P2;PMS_P1;PMS_P2;Temp;Humidity;BMP_temperature;BMP_pressure;BME280_temperature;BME280_humidity;BME280_pressure;Samples;Min_cycle;Max_cycle;Signal;HPM_P1;HPM_P2
2022/03/13 00:02:13;;;;;;;11.95;10.73;;;;;;;7.13;56.80;100977.91;5019693;27;20469;-73
2022/03/13 00:04:38;;;;;;;12.95;11.65;;;;;;;7.15;57.14;100981.28;5022555;27;20025;-72
2022/03/13 00:07:16;;;;;;;13.45;11.45;;;;;;;7.20;56.53;100973.06;5023696;27;20113;-71
2022/03/13 00:09:44;;;;;;;13.50;11.40;;;;;;;7.18;56.57;100970.53;5006874;27;20128;-72
2022/03/13 00:12:11;;;;;;;11.77;9.98;;;;;;;7.28;55.99;100964.63;5026243;27;20065;-72
2022/03/13 00:14:41;;;;;;;12.55;10.65;;;;;;;7.26;55.08;100961.25;5024116;27;20025;-72
2022/03/13 00:17:07;;;;;;;11.60;10.40;;;;;;;7.28;54.93;100959.34;5026761;27;20874;-73
2022/03/13 00:19:33;;;;;;;11.48;10.38;;;;;;;7.22;55.18;100969.38;5038067;27;20197;-72
2022/03/13 00:21:58;;;;;;;11.27;10.07;;;;;;;7.27;54.59;100970.84;5044053;27;20033;-72
2022/03/13 00:24:24;;;;;;;14.55;10.30;;;;;;;7.27;55.01;100973.47;5037583;27;20036;-72
2022/03/13 00:26:51;;;;;;;10.85;9.85;;;;;;;7.33;54.70;100965.13;5037640;27;20065;-70
2022/03/13 00:29:17;;;;;;;10.55;9.55;;;;;;;7.31;55.04;100972.28;5003523;27;20330;-72
2022/03/13 00:31:42;;;;;;;10.80;9.75;;;;;;;7.32;54.06;100969.56;5036236;27;20878;-72
2022/03/13 00:34:08;;;;;;;10.50;9.50;;;;;;;7.28;53.70;100969.88;5036700;27;20025;-72
2022/03/13 00:36:34;;;;;;;11.02;9.82;;;;;;;7.17;53.83;100968.00;5040267;27;20025;-71
2022/03/13 00:38:59;;;;;;;11.25;9.65;;;;;;;7.21;54.60;100965.03;5032798;27;20580;-71
2022/03/13 00:41:24;;;;;;;10.50;9.40;;;;;;;7.15;55.03;100967.25;5039979;27;20760;-71
2022/03/13 00:43:50;;;;;;;10.75;9.65;;;;;;;7.25;54.38;100972.72;5043527;27;20955;-72
2022/03/13 00:46:15;;;;;;;12.68;10.20;;;;;;;7.27;54.71;100968.19;5042839;27;20818;-72
2022/03/13 00:48:41;;;;;;;10.57;9.20;;;;;;;7.14;54.88;100966.44;5043862;28;20036;-72
2022/03/13 00:51:07;;;;;;;10.95;9.88;;;;;;;6.98;55.79;100969.31;5025384;27;20036;-71
2022/03/13 00:53:32;;;;;;;11.70;10.52;;;;;;;6.78;56.64;100956.72;5061891;27;20329;-70
2022/03/13 00:55:57;;;;;;;13.88;9.88;;;;;;;6.68;57.04;100951.25;5065186;27;20020;-70
2022/03/13 00:58:23;;;;;;;10.10;9.07;;;;;;;6.55;58.18;100943.38;5066693;27;20035;-72
2022/03/13 01:00:48;;;;;;;10.75;9.20;;;;;;;6.42;59.22;100948.63;5084257;27;20020;-72
2022/03/13 01:03:30;;;;;;;13.68;9.80;;;;;;;6.34;58.84;100943.88;5079584;27;20234;-72
2022/03/13 01:05:55;;;;;;;15.52;9.40;;;;;;;6.47;58.70;100943.91;5009411;28;20120;-70
2022/03/13 01:08:21;;;;;;;10.27;9.07;;;;;;;6.39;58.82;100940.97;5032808;28;20040;-72
2022/03/13 01:10:50;;;;;;;11.75;9.38;;;;;;;6.44;59.13;100936.22;5030354;27;20549;-72
2022/03/13 01:13:15;;;;;;;10.18;9.13;;;;;;;6.35;57.62;100939.47;5031301;27;20093;-71
2022/03/13 01:15:43;;;;;;;10.10;9.10;;;;;;;6.33;57.87;100933.47;5031228;27;21004;-73
2022/03/13 01:18:08;;;;;;;10.70;9.05;;;;;;;6.37;57.21;100932.31;5046804;27;20086;-71
2022/03/13 01:20:33;;;;;;;10.35;9.23;;;;;;;6.31;56.82;100932.75;5049553;27;20032;-71
2022/03/13 01:22:59;;;;;;;10.30;9.27;;;;;;;6.27;57.65;100926.03;5055094;27;20315;-70
2022/03/13 01:25:24;;;;;;;10.32;9.32;;;;;;;6.06;57.77;100923.06;5052142;27;20029;-70
2022/03/13 01:27:50;;;;;;;10.23;9.23;;;;;;;5.99;58.36;100912.09;5049797;27;20155;-70
2022/03/13 01:30:15;;;;;;;10.52;9.52;;;;;;;5.98;56.94;100915.72;5052363;27;20052;-71
2022/03/13 01:32:42;;;;;;;11.18;9.40;;;;;;;5.90;57.92;100904.84;5054786;27;20213;-71
2022/03/13 01:35:07;;;;;;;10.00;9.00;;;;;;;5.91;56.95;100903.88;5033847;27;20020;-71
2022/03/13 01:37:38;;;;;;;10.27;9.27;;;;;;;5.99;56.16;100901.59;5025990;27;20033;-71
2022/03/13 01:40:05;;;;;;;11.13;8.98;;;;;;;6.05;54.98;100895.97;5022194;27;20021;-71
2022/03/13 01:42:30;;;;;;;11.13;9.40;;;;;;;6.17;53.65;100894.28;5030980;27;20017;-72
2022/03/13 01:44:56;;;;;;;13.00;9.55;;;;;;;6.22;52.79;100891.31;5029181;27;20224;-71
2022/03/13 01:47:21;;;;;;;10.05;9.05;;;;;;;6.29;51.61;100888.19;4995508;28;20010;-72
2022/03/13 01:49:47;;;;;;;12.52;9.13;;;;;;;6.34;50.99;100880.81;5009060;28;20129;-72
2022/03/13 01:52:14;;;;;;;10.13;9.13;;;;;;;6.38;50.55;100870.94;5026796;27;20065;-70
2022/03/13 01:54:42;;;;;;;12.02;9.60;;;;;;;6.39;50.23;100877.00;5030768;27;20544;-72
2022/03/13 01:57:08;;;;;;;11.55;9.13;;;;;;;6.44;50.48;100873.13;5016167;27;20031;-70
2022/03/13 01:59:33;;;;;;;13.20;9.10;;;;;;;6.51;50.21;100869.16;5031477;27;20326;-71
2022/03/13 02:01:58;;;;;;;10.38;9.02;;;;;;;6.55;50.26;100867.13;5030310;27;20005;-70
2022/03/13 02:04:26;;;;;;;10.35;9.05;;;;;;;6.59;50.48;100873.03;5019449;27;20021;-71
2022/03/13 02:06:53;;;;;;;9.93;9.02;;;;;;;6.48;49.32;100863.25;5012418;27;20779;-71
2022/03/13 02:09:18;;;;;;;11.00;9.68;;;;;;;6.43;50.34;100865.34;5012128;27;20017;-71
2022/03/13 02:11:43;;;;;;;10.27;9.18;;;;;;;6.44;49.00;100864.41;5011032;27;20037;-70
2022/03/13 02:14:10;;;;;;;10.20;9.07;;;;;;;6.30;49.01;100853.09;5027200;27;20260;-71
2022/03/13 02:16:36;;;;;;;11.23;9.35;;;;;;;6.38;49.25;100862.22;4975920;27;20040;-71
2022/03/13 02:19:01;;;;;;;10.65;9.38;;;;;;;6.31;49.05;100862.63;5019586;27;20016;-71
2022/03/13 02:21:28;;;;;;;10.02;8.82;;;;;;;6.30;49.45;100852.22;5020057;27;21095;-71
2022/03/13 02:23:59;;;;;;;10.27;9.15;;;;;;;6.34;49.63;100856.31;5029790;27;20421;-71
2022/03/13 02:26:24;;;;;;;10.45;8.90;;;;;;;6.44;47.66;100859.97;5028193;27;20074;-70
2022/03/13 02:28:51;;;;;;;10.07;9.07;;;;;;;6.48;47.29;100864.06;5042975;27;21035;-70
2022/03/13 02:31:19;;;;;;;10.80;9.65;;;;;;;6.47;46.85;100853.66;5014335;27;20052;-72
2022/03/13 02:33:44;;;;;;;11.35;9.45;;;;;;;6.51;46.97;100861.25;5014888;27;20034;-71
2022/03/13 02:36:34;;;;;;;10.52;8.95;;;;;;;6.46;46.35;100841.50;5043788;27;20009;-71
2022/03/13 02:38:59;;;;;;;9.70;8.65;;;;;;;6.53;46.64;100859.34;5021480;27;20136;-72
2022/03/13 02:41:28;;;;;;;12.93;9.13;;;;;;;6.50;46.54;100848.19;5018654;27;20006;-72
2022/03/13 02:43:57;;;;;;;12.23;8.77;;;;;;;6.39;46.89;100848.97;4977881;28;20822;-71
2022/03/13 02:46:23;;;;;;;12.25;9.30;;;;;;;6.44;46.65;100835.50;5013121;27;20006;-70
2022/03/13 02:48:49;;;;;;;10.48;8.65;;;;;;;6.43;46.57;100839.91;5011244;28;20022;-71
2022/03/13 02:51:15;;;;;;;9.85;8.85;;;;;;;6.47;46.11;100843.16;5011032;28;20033;-72
2022/03/13 02:53:40;;;;;;;9.63;8.63;;;;;;;6.52;45.77;100836.63;5012026;27;20737;-73
2022/03/13 02:56:06;;;;;;;10.60;9.50;;;;;;;6.49;45.13;100836.03;5011534;27;20020;-72
2022/03/13 02:58:32;;;;;;;11.43;8.73;;;;;;;6.44;45.12;100830.22;5009766;28;20029;-72
2022/03/13 03:00:58;;;;;;;11.70;8.98;;;;;;;6.48;45.43;100831.69;5011295;28;20055;-70
2022/03/13 03:03:26;;;;;;;9.82;8.48;;;;;;;6.48;44.45;100829.06;5012843;27;20036;-72
2022/03/13 03:05:52;;;;;;;11.57;9.10;;;;;;;6.55;44.05;100824.22;5010195;27;20009;-71
2022/03/13 03:08:17;;;;;;;10.88;8.90;;;;;;;6.60;44.21;100825.59;5001961;27;20026;-71
2022/03/13 03:10:43;;;;;;;9.48;8.45;;;;;;;6.61;43.69;100823.78;5007103;28;20033;-71
2022/03/13 03:13:10;;;;;;;11.60;9.10;;;;;;;6.60;43.56;100824.72;5025791;27;20044;-71
2022/03/13 03:15:35;;;;;;;9.77;8.80;;;;;;;6.61;42.67;100823.78;5017848;27;20097;-71
2022/03/13 03:18:02;;;;;;;12.35;9.07;;;;;;;6.68;42.11;100822.38;5007456;28;20025;-71
2022/03/13 03:20:28;;;;;;;9.95;8.80;;;;;;;6.64;42.50;100818.28;5007571;28;20438;-71
2022/03/13 03:22:53;;;;;;;13.23;9.18;;;;;;;6.59;42.30;100826.53;5010017;27;20528;-70
2022/03/13 03:25:26;;;;;;;13.18;9.07;;;;;;;6.58;41.92;100827.47;5010713;27;20010;-71
2022/03/13 03:27:51;;;;;;;12.98;8.82;;;;;;;6.58;41.91;100813.50;5014685;27;20064;-73
2022/03/13 03:30:21;;;;;;;10.18;8.80;;;;;;;6.67;41.94;100821.56;4993111;27;20059;-71
2022/03/13 03:32:47;;;;;;;9.43;8.23;;;;;;;6.62;42.16;100825.47;5012143;27;20013;-71
2022/03/13 03:35:12;;;;;;;11.35;8.60;;;;;;;6.57;41.63;100819.69;5027934;27;20879;-71
2022/03/13 03:37:38;;;;;;;11.30;8.90;;;;;;;6.61;40.65;100813.25;5038474;27;20032;-71
2022/03/13 03:40:05;;;;;;;11.30;9.35;;;;;;;6.60;41.58;100814.22;4980948;27;20009;-71
2022/03/13 03:42:31;;;;;;;13.00;8.73;;;;;;;6.67;40.84;100816.31;4976176;27;20005;-71
2022/03/13 03:44:56;;;;;;;13.05;8.70;;;;;;;6.68;40.17;100818.00;5009528;27;20059;-72
2022/03/13 03:47:22;;;;;;;15.68;8.88;;;;;;;6.64;40.12;100807.78;5012476;27;20342;-71
2022/03/13 03:49:48;;;;;;;10.13;8.55;;;;;;;6.58;40.81;100814.31;5010210;27;20790;-71
2022/03/13 03:52:13;;;;;;;9.95;8.68;;;;;;;6.59;40.44;100809.91;5008507;27;21015;-71
2022/03/13 03:54:38;;;;;;;9.73;8.73;;;;;;;6.58;40.53;100819.56;5019804;27;20027;-71
2022/03/13 03:57:04;;;;;;;9.68;8.57;;;;;;;6.54;40.79;100818.09;5031234;27;20016;-72
2022/03/13 03:59:29;;;;;;;9.40;8.40;;;;;;;6.58;40.75;100826.63;5030111;27;20025;-72
2022/03/13 04:01:56;;;;;;;11.00;8.77;;;;;;;6.49;41.10;100826.34;5047998;27;20024;-70
2022/03/13 04:04:21;;;;;;;9.35;8.20;;;;;;;6.47;40.93;100828.25;5030841;27;20024;-72
2022/03/13 04:06:47;;;;;;;11.15;8.32;;;;;;;6.39;41.26;100830.56;5034693;27;20021;-71
2022/03/13 04:09:12;;;;;;;10.48;8.30;;;;;;;6.38;41.78;100830.69;5004071;27;20214;-71
2022/03/13 04:11:38;;;;;;;9.40;8.43;;;;;;;6.42;41.50;100830.34;5009813;27;20377;-71
2022/03/13 04:14:03;;;;;;;9.88;8.88;;;;;;;6.35;41.78;100840.44;5011936;27;20029;-71
2022/03/13 04:16:28;;;;;;;10.10;8.15;;;;;;;6.31;41.66;100827.63;5010454;27;20047;-71
2022/03/13 04:18:57;;;;;;;9.70;8.70;;;;;;;6.30;42.64;100834.69;5032509;27;20428;-72
2022/03/13 04:21:22;;;;;;;11.90;8.68;;;;;;;6.12;43.02;100823.66;5012938;27;20013;-71
2022/03/13 04:23:48;;;;;;;9.73;8.73;;;;;;;6.15;42.79;100828.69;5003899;27;20353;-70
2022/03/13 04:26:14;;;;;;;9.60;8.35;;;;;;;6.04;43.06;100825.97;5013348;27;20093;-70
2022/03/13 04:28:39;;;;;;;15.20;8.40;;;;;;;5.93;43.74;100823.19;5011433;27;20048;-71
2022/03/13 04:31:08;;;;;;;11.30;8.48;;;;;;;5.99;43.42;100838.56;5027016;27;20046;-71
2022/03/13 04:33:34;;;;;;;11.77;8.75;;;;;;;5.96;43.26;100836.13;5031797;27;20149;-70
2022/03/13 04:36:12;;;;;;;9.50;8.15;;;;;;;5.95;43.23;100844.94;5011612;27;20949;-72
2022/03/13 04:38:37;;;;;;;10.35;8.52;;;;;;;6.00;43.68;100835.00;5015559;27;20048;-72
2022/03/13 04:41:03;;;;;;;9.10;8.18;;;;;;;5.94;44.56;100825.72;5028672;27;20334;-72
2022/03/13 04:43:28;;;;;;;8.90;8.10;;;;;;;5.92;44.93;100829.38;5029461;27;20017;-71
2022/03/13 04:45:53;;;;;;;9.95;8.95;;;;;;;5.81;45.65;100830.09;5027753;27;20730;-72
2022/03/13 04:48:19;;;;;;;14.85;8.43;;;;;;;5.79;43.79;100826.75;5029279;27;20346;-70
2022/03/13 04:50:45;;;;;;;9.68;8.70;;;;;;;5.81;42.80;100817.84;5030582;27;20033;-70
2022/03/13 04:53:11;;;;;;;11.50;8.57;;;;;;;5.84;42.52;100812.38;5029930;28;20518;-71
2022/03/13 04:55:36;;;;;;;10.40;8.48;;;;;;;5.83;42.31;100822.97;5028823;27;20778;-71
2022/03/13 04:58:02;;;;;;;10.07;8.02;;;;;;;5.90;41.66;100812.91;4997310;27;20128;-71
2022/03/13 05:00:27;;;;;;;8.93;8.13;;;;;;;5.89;42.54;100806.81;5013461;27;20383;-70
2022/03/13 05:02:54;;;;;;;9.68;8.27;;;;;;;5.95;41.41;100808.16;5014891;27;20012;-70
2022/03/13 05:05:21;;;;;;;12.73;8.43;;;;;;;6.02;40.80;100817.34;4997029;27;20021;-72
2022/03/13 05:07:46;;;;;;;11.30;8.38;;;;;;;6.06;41.47;100808.28;5015396;27;20489;-72
2022/03/13 05:10:12;;;;;;;13.05;8.35;;;;;;;6.06;40.55;100813.53;5033381;27;20102;-72
2022/03/13 05:12:37;;;;;;;9.20;7.97;;;;;;;6.12;39.75;100809.66;5031544;27;20630;-70
2022/03/13 05:15:03;;;;;;;11.75;7.70;;;;;;;6.21;40.69;100821.34;5016097;27;20097;-70
2022/03/13 05:17:28;;;;;;;9.27;8.38;;;;;;;6.17;39.58;100821.53;5052232;27;20020;-72
2022/03/13 05:19:54;;;;;;;9.77;8.40;;;;;;;6.19;39.29;100814.41;5051450;27;20963;-72
2022/03/13 05:22:19;;;;;;;9.32;8.43;;;;;;;6.26;39.61;100814.81;5051177;27;20020;-72
2022/03/13 05:24:46;;;;;;;9.90;8.23;;;;;;;6.36;39.76;100813.22;5054045;27;20349;-71
2022/03/13 05:27:11;;;;;;;9.23;8.32;;;;;;;6.33;38.90;100813.44;5034876;27;20004;-72
2022/03/13 05:29:37;;;;;;;11.60;7.97;;;;;;;6.34;38.39;100811.63;5035855;27;20531;-72
2022/03/13 05:32:02;;;;;;;10.10;8.23;;;;;;;6.42;38.43;100814.56;5051418;27;20842;-72
2022/03/13 05:34:27;;;;;;;9.57;7.97;;;;;;;6.44;38.13;100817.91;5017164;27;20001;-72
2022/03/13 05:36:53;;;;;;;9.95;8.27;;;;;;;6.53;37.60;100812.03;5036070;27;20013;-72
2022/03/13 05:39:19;;;;;;;10.15;8.07;;;;;;;6.43;38.51;100803.13;5043800;27;20917;-70
2022/03/13 05:41:44;;;;;;;8.73;7.82;;;;;;;6.42;37.57;100816.38;5033987;27;20012;-71
2022/03/13 05:44:12;;;;;;;8.88;8.00;;;;;;;6.46;37.43;100821.28;5035054;27;20428;-72
2022/03/13 05:46:37;;;;;;;10.45;8.18;;;;;;;6.51;37.27;100811.31;4996870;27;20120;-71
2022/03/13 05:49:03;;;;;;;10.95;7.80;;;;;;;6.52;37.80;100812.97;5034755;27;20069;-71
2022/03/13 05:51:32;;;;;;;9.77;8.00;;;;;;;6.49;37.02;100813.19;5033982;27;20150;-71
2022/03/13 05:53:57;;;;;;;8.52;7.65;;;;;;;6.55;36.78;100803.19;5013804;27;20128;-72
2022/03/13 05:56:23;;;;;;;9.13;7.97;;;;;;;6.57;37.85;100807.41;5033027;27;20016;-71
2022/03/13 05:58:48;;;;;;;11.85;8.35;;;;;;;6.55;37.88;100818.97;5035784;27;20021;-70
2022/03/13 06:01:13;;;;;;;8.73;7.85;;;;;;;6.61;36.51;100823.78;5042217;27;20756;-70
2022/03/13 06:03:39;;;;;;;11.75;8.00;;;;;;;6.66;36.64;100817.25;5052842;27;20212;-70
2022/03/13 06:06:04;;;;;;;9.55;7.65;;;;;;;6.76;36.49;100822.69;5043126;27;20005;-71
2022/03/13 06:08:30;;;;;;;8.93;8.00;;;;;;;6.79;36.49;100821.63;5039299;27;20025;-71
2022/03/13 06:10:57;;;;;;;9.05;8.15;;;;;;;6.83;35.86;100826.56;4999826;27;20068;-70
2022/03/13 06:13:23;;;;;;;9.10;7.63;;;;;;;6.86;36.94;100828.13;5033947;27;20020;-70
2022/03/13 06:15:49;;;;;;;8.38;7.55;;;;;;;6.85;37.65;100832.56;5012510;27;20001;-71
2022/03/13 06:18:15;;;;;;;7.63;6.93;;;;;;;6.89;36.01;100838.41;5034431;27;20120;-70
2022/03/13 06:20:40;;;;;;;9.35;7.85;;;;;;;6.91;36.55;100831.28;5034211;27;20021;-71
2022/03/13 06:23:05;;;;;;;9.85;7.57;;;;;;;6.97;36.59;100840.50;5033183;27;20016;-70
2022/03/13 06:25:31;;;;;;;8.43;7.65;;;;;;;6.96;37.02;100839.66;5032863;27;20086;-70
2022/03/13 06:27:56;;;;;;;8.23;7.43;;;;;;;7.04;36.17;100847.00;5013097;27;20052;-71
2022/03/13 06:30:22;;;;;;;8.38;7.53;;;;;;;7.14;36.27;100852.44;5027783;27;23058;-71
2022/03/13 06:32:49;;;;;;;9.18;7.10;;;;;;;7.19;36.35;100858.19;5016201;27;20603;-71
2022/03/13 06:35:15;;;;;;;8.27;7.45;;;;;;;7.10;36.17;100851.81;5031606;27;20060;-70
2022/03/13 06:37:41;;;;;;;8.73;7.93;;;;;;;7.07;37.60;100854.66;5020570;27;20005;-71
2022/03/13 06:40:07;;;;;;;8.80;7.75;;;;;;;7.09;35.99;100844.88;4970462;27;20020;-71
2022/03/13 06:42:33;;;;;;;8.25;7.45;;;;;;;7.13;36.31;100848.13;4998302;27;20031;-70
2022/03/13 06:44:58;;;;;;;8.60;7.70;;;;;;;7.26;36.62;100841.00;5013659;27;20013;-71
2022/03/13 06:47:24;;;;;;;8.85;7.95;;;;;;;7.16;36.82;100845.25;5029675;27;20189;-70
2022/03/13 06:49:49;;;;;;;8.88;7.38;;;;;;;7.16;37.12;100843.50;5035310;27;20029;-71
2022/03/13 06:52:15;;;;;;;9.38;7.75;;;;;;;7.20;37.06;100851.97;5044837;27;20012;-71
2022/03/13 06:54:41;;;;;;;8.32;7.53;;;;;;;7.21;36.77;100851.88;5062694;27;20343;-72
2022/03/13 06:57:06;;;;;;;9.75;7.63;;;;;;;7.19;36.43;100850.28;5031153;27;20000;-71
2022/03/13 06:59:32;;;;;;;9.27;7.90;;;;;;;7.19;36.45;100845.91;5049956;27;20036;-72
2022/03/13 07:01:57;;;;;;;9.68;7.68;;;;;;;7.27;36.07;100853.22;5014194;27;20867;-71
2022/03/13 07:04:22;;;;;;;8.38;7.57;;;;;;;7.35;35.57;100847.41;5050891;27;20013;-70
2022/03/13 07:06:48;;;;;;;9.38;7.70;;;;;;;7.36;35.47;100849.06;5035747;27;20073;-72
2022/03/13 07:09:13;;;;;;;9.02;7.65;;;;;;;7.45;35.34;100853.66;5059302;27;20584;-72
2022/03/13 07:11:46;;;;;;;7.75;7.05;;;;;;;7.51;35.57;100853.19;5049677;27;20028;-72
2022/03/13 07:14:11;;;;;;;8.60;7.78;;;;;;;7.48;35.48;100852.59;5015804;27;20923;-70
2022/03/13 07:16:37;;;;;;;8.50;7.63;;;;;;;7.51;35.38;100847.91;5028333;27;20021;-72
2022/03/13 07:19:03;;;;;;;11.02;7.72;;;;;;;7.53;35.22;100843.41;5011576;27;21222;-72
2022/03/13 07:21:28;;;;;;;8.80;7.95;;;;;;;7.52;35.32;100841.72;5046297;27;20013;-72
2022/03/13 07:23:53;;;;;;;9.75;8.00;;;;;;;7.58;35.71;100840.41;5045425;27;20021;-71
2022/03/13 07:26:19;;;;;;;8.50;7.60;;;;;;;7.74;35.12;100845.34;5025223;27;20447;-71
2022/03/13 07:28:44;;;;;;;8.88;7.97;;;;;;;7.80;35.11;100846.69;5014726;27;20195;-71
2022/03/13 07:31:09;;;;;;;13.07;7.55;;;;;;;7.94;34.65;100845.63;5034089;27;20029;-70
2022/03/13 07:33:35;;;;;;;9.15;7.70;;;;;;;7.95;34.66;100857.88;4998811;27;20104;-71
2022/03/13 07:36:00;;;;;;;11.75;7.70;;;;;;;8.00;34.57;100853.09;5034720;27;20009;-72
2022/03/13 07:38:26;;;;;;;8.43;7.50;;;;;;;8.07;34.78;100849.03;5039699;27;20034;-72
2022/03/13 07:40:52;;;;;;;9.07;7.60;;;;;;;8.05;34.52;100848.28;5015025;27;20115;-71
2022/03/13 07:43:17;;;;;;;8.98;8.10;;;;;;;8.19;35.06;100848.09;5036322;27;20021;-70
2022/03/13 07:45:42;;;;;;;8.38;7.57;;;;;;;8.21;34.62;100846.16;5040450;27;20005;-70
2022/03/13 07:48:08;;;;;;;8.88;7.43;;;;;;;8.26;33.94;100845.78;5045618;27;21036;-71
2022/03/13 07:50:33;;;;;;;11.18;7.72;;;;;;;8.28;33.89;100848.31;5008472;27;20064;-71
2022/03/13 07:52:59;;;;;;;9.73;7.95;;;;;;;8.21;33.89;100858.50;5019123;27;20009;-71
2022/03/13 07:55:25;;;;;;;8.25;7.35;;;;;;;8.25;34.94;100855.50;5047041;27;20020;-71
2022/03/13 07:57:51;;;;;;;8.52;7.72;;;;;;;8.24;34.62;100861.72;5049600;27;20013;-70
2022/03/13 08:00:17;;;;;;;9.70;7.53;;;;;;;8.28;34.38;100854.44;5047072;27;20906;-71
2022/03/13 08:02:46;;;;;;;10.35;8.60;;;;;;;8.29;34.36;100858.75;5050982;27;20127;-71
2022/03/13 08:05:16;;;;;;;8.60;7.70;;;;;;;8.27;34.91;100850.13;5003387;27;20028;-71
2022/03/13 08:07:41;;;;;;;11.48;8.10;;;;;;;8.38;34.77;100854.56;5003899;27;20503;-70
2022/03/13 08:10:07;;;;;;;8.07;7.30;;;;;;;8.35;34.17;100850.34;5047481;27;20027;-72
2022/03/13 08:12:32;;;;;;;9.63;8.13;;;;;;;8.41;34.93;100841.97;5026006;27;20021;-72
2022/03/13 08:14:58;;;;;;;9.18;7.70;;;;;;;8.56;34.45;100853.16;4991058;27;20009;-72
2022/03/13 08:17:24;;;;;;;11.07;7.60;;;;;;;8.70;33.99;100848.56;5036624;27;20120;-71
2022/03/13 08:19:49;;;;;;;8.52;7.63;;;;;;;8.76;34.16;100842.81;5015817;27;20037;-71
2022/03/13 08:22:17;;;;;;;11.88;7.15;;;;;;;8.86;34.62;100854.31;5029513;27;20020;-71
2022/03/13 08:24:43;;;;;;;8.38;7.57;;;;;;;8.95;34.07;100842.16;5053147;27;20524;-71
2022/03/13 08:27:08;;;;;;;8.70;7.80;;;;;;;9.12;34.64;100854.00;5035853;27;20025;-70
2022/03/13 08:29:33;;;;;;;8.60;7.80;;;;;;;9.38;34.43;100843.13;5034026;27;20871;-71
2022/03/13 08:31:59;;;;;;;10.07;7.70;;;;;;;9.77;34.31;100838.09;5014182;27;20075;-72
2022/03/13 08:34:28;;;;;;;11.45;8.80;;;;;;;9.86;32.27;100841.78;5036403;27;20017;-72
2022/03/13 08:36:53;;;;;;;10.43;8.18;;;;;;;10.03;32.43;100835.06;5033415;27;20600;-71
2022/03/13 08:39:18;;;;;;;9.10;8.20;;;;;;;10.32;32.62;100817.53;5033822;27;20031;-72
2022/03/13 08:41:44;;;;;;;10.88;8.15;;;;;;;10.38;31.52;100821.47;5014593;27;20024;-72
2022/03/13 08:44:09;;;;;;;9.45;8.55;;;;;;;10.57;31.06;100844.50;5033668;27;20028;-71
2022/03/13 08:46:35;;;;;;;12.93;8.57;;;;;;;10.46;30.73;100849.91;5033320;27;20009;-71
2022/03/13 08:49:00;;;;;;;10.27;8.63;;;;;;;10.56;31.15;100837.56;5014020;28;20032;-70
2022/03/13 08:51:27;;;;;;;11.05;8.30;;;;;;;10.67;31.44;100841.06;5013821;28;20510;-70
2022/03/13 08:53:53;;;;;;;9.63;8.48;;;;;;;10.82;30.59;100837.06;5031204;27;20052;-72
2022/03/13 08:56:20;;;;;;;9.13;8.23;;;;;;;11.14;32.29;100833.34;4998074;28;20105;-71
2022/03/13 08:58:45;;;;;;;9.65;8.68;;;;;;;11.68;29.28;100831.09;5042841;27;20760;-71
2022/03/13 09:01:10;;;;;;;10.40;9.18;;;;;;;11.73;29.26;100828.88;5032032;28;20025;-71
2022/03/13 09:03:36;;;;;;;11.65;8.90;;;;;;;11.94;28.95;100831.34;5014977;28;20100;-71
2022/03/13 09:06:02;;;;;;;9.10;8.18;;;;;;;12.15;28.69;100827.66;5012405;27;20013;-71
2022/03/13 09:08:27;;;;;;;10.68;8.80;;;;;;;12.50;29.51;100826.13;5026307;27;20517;-72
2022/03/13 09:10:53;;;;;;;9.95;8.68;;;;;;;12.12;28.81;100823.47;5034229;27;20036;-71
2022/03/13 09:13:19;;;;;;;9.20;8.20;;;;;;;12.01;29.24;100823.66;4999679;28;20514;-71
2022/03/13 09:15:44;;;;;;;10.38;8.98;;;;;;;12.12;28.93;100822.66;5016547;28;20061;-71
2022/03/13 09:18:10;;;;;;;10.57;9.48;;;;;;;12.32;29.05;100818.94;5015850;28;20088;-73
2022/03/13 09:20:35;;;;;;;13.43;10.00;;;;;;;12.33;29.85;100820.59;5000117;28;20013;-73
2022/03/13 09:23:01;;;;;;;10.23;9.13;;;;;;;12.51;30.49;100823.31;5002781;27;20013;-73
2022/03/13 09:25:26;;;;;;;12.65;9.10;;;;;;;12.43;29.62;100825.03;5003920;27;20018;-72
2022/03/13 09:27:52;;;;;;;9.95;8.85;;;;;;;12.33;28.94;100825.91;5034797;28;20492;-72
2022/03/13 09:30:17;;;;;;;11.65;9.30;;;;;;;12.27;29.70;100823.84;5037966;28;20040;-71
2022/03/13 09:32:43;;;;;;;12.50;9.90;;;;;;;12.18;29.06;100814.94;5025836;28;20105;-72
2022/03/13 09:35:09;;;;;;;13.13;9.50;;;;;;;12.31;28.78;100827.88;4996561;28;20025;-73
2022/03/13 09:37:35;;;;;;;11.25;9.10;;;;;;;12.54;29.01;100823.00;5004708;28;20026;-72
2022/03/13 09:40:00;;;;;;;10.50;9.43;;;;;;;12.83;29.42;100826.47;5025353;28;20093;-72
2022/03/13 09:42:25;;;;;;;11.90;9.27;;;;;;;13.14;30.72;100828.78;5004665;28;20037;-72
2022/03/13 09:44:51;;;;;;;13.63;9.80;;;;;;;13.27;28.08;100821.28;5018868;28;20303;-71
2022/03/13 09:47:16;;;;;;;14.60;9.18;;;;;;;13.44;28.10;100813.47;5010233;28;20377;-71
2022/03/13 09:49:42;;;;;;;10.85;9.73;;;;;;;13.37;28.67;100826.56;5001884;28;20977;-72
2022/03/13 09:52:11;;;;;;;13.15;9.57;;;;;;;13.74;27.92;100821.00;5001964;28;20040;-72
2022/03/13 09:54:36;;;;;;;11.55;9.15;;;;;;;13.43;28.49;100827.75;5007998;28;20327;-72
2022/03/13 09:57:05;;;;;;;10.45;9.45;;;;;;;13.35;29.01;100808.09;4985068;28;20181;-70
2022/03/13 09:59:31;;;;;;;15.07;10.02;;;;;;;13.55;28.75;100810.56;5014797;27;20014;-73
2022/03/13 10:01:56;;;;;;;13.38;10.40;;;;;;;13.78;28.48;100815.41;4982438;27;20030;-73
2022/03/13 10:04:22;;;;;;;11.40;9.52;;;;;;;13.89;28.01;100812.47;4989949;27;20028;-74
2022/03/13 10:07:04;;;;;;;11.27;9.52;;;;;;;14.61;28.66;100812.16;5009747;27;20025;-74
2022/03/13 10:09:30;;;;;;;11.00;9.85;;;;;;;15.21;27.55;100804.94;5014785;28;20129;-74
2022/03/13 10:12:03;;;;;;;21.80;10.13;;;;;;;15.70;26.01;100807.59;4987855;28;20033;-73
2022/03/13 10:14:28;;;;;;;11.37;9.40;;;;;;;16.05;27.21;100802.06;5014029;27;20040;-74
2022/03/13 10:16:53;;;;;;;17.50;10.30;;;;;;;16.30;25.59;100800.97;5041054;27;20025;-74
2022/03/13 10:19:19;;;;;;;11.40;9.85;;;;;;;16.55;25.40;100800.03;5045553;27;20125;-73
2022/03/13 10:22:05;;;;;;;11.73;9.57;;;;;;;16.06;26.61;100804.56;5042757;27;20013;-74
2022/03/13 10:24:44;;;;;;;16.20;10.25;;;;;;;15.92;26.53;100798.09;5025294;27;20017;-72
2022/03/13 10:27:10;;;;;;;16.90;10.18;;;;;;;15.10;27.82;100796.28;5020840;27;20058;-72
2022/03/13 10:29:35;;;;;;;15.23;9.70;;;;;;;15.84;27.12;100795.44;5039722;27;20033;-72
2022/03/13 10:32:01;;;;;;;12.07;10.07;;;;;;;17.10;26.44;100788.34;5037841;27;20917;-72
2022/03/13 10:34:26;;;;;;;10.65;9.55;;;;;;;17.29;26.04;100788.88;5038595;27;20010;-74
2022/03/13 10:36:52;;;;;;;12.00;10.15;;;;;;;17.88;25.08;100779.28;5011592;27;20009;-72
2022/03/13 10:39:18;;;;;;;10.63;9.55;;;;;;;18.28;25.43;100785.22;5020136;27;20010;-72
2022/03/13 10:41:47;;;;;;;10.32;9.43;;;;;;;18.49;25.04;100784.44;5012869;28;20017;-71
2022/03/13 10:44:17;;;;;;;10.35;9.23;;;;;;;19.52;24.66;100774.31;5028303;28;20017;-71
2022/03/13 10:46:43;;;;;;;15.82;9.90;;;;;;;20.18;23.14;100775.78;5016516;28;20365;-72
2022/03/13 10:49:09;;;;;;;12.63;9.75;;;;;;;19.58;23.41;100766.53;5001509;28;20451;-72
2022/03/13 10:51:45;;;;;;;10.63;9.63;;;;;;;19.52;24.42;100771.63;4991976;28;20086;-73
2022/03/13 10:54:27;;;;;;;14.57;9.73;;;;;;;19.69;23.38;100765.97;5012231;28;20017;-73
2022/03/13 10:57:06;;;;;;;10.07;9.05;;;;;;;20.11;23.34;100758.81;5011257;28;20006;-73
2022/03/13 10:59:31;;;;;;;10.57;9.45;;;;;;;19.96;24.24;100750.06;5023611;28;20040;-72
2022/03/13 11:02:12;;;;;;;10.38;9.35;;;;;;;19.81;24.45;100759.06;5016102;28;20218;-72
2022/03/13 11:04:51;;;;;;;11.10;9.63;;;;;;;20.53;23.45;100756.91;5014140;28;20910;-74
2022/03/13 11:07:17;;;;;;;10.18;9.10;;;;;;;21.22;23.50;100760.34;5002373;28;20845;-73
2022/03/13 11:09:43;;;;;;;10.57;9.38;;;;;;;21.37;22.66;100746.66;5037931;27;20028;-72
2022/03/13 11:12:10;;;;;;;11.25;10.07;;;;;;;20.74;22.94;100757.78;5048644;27;20062;-73
2022/03/13 11:14:36;;;;;;;15.05;9.60;;;;;;;20.28;23.77;100751.22;5047836;27;20044;-70
2022/03/13 11:17:02;;;;;;;11.05;10.00;;;;;;;20.52;24.25;100743.66;5036847;27;20085;-73
2022/03/13 11:19:28;;;;;;;10.55;9.48;;;;;;;20.62;24.44;100754.03;5053848;27;20201;-73
2022/03/13 11:21:53;;;;;;;10.00;9.20;;;;;;;19.98;25.39;100737.25;5035195;27;20025;-71
2022/03/13 11:24:19;;;;;;;10.45;9.45;;;;;;;19.51;25.16;100742.31;5035191;27;20040;-73